sensor_id;sensor_type;location;lat;lon;timestamp;P1;durP1;ratioP1;P2;durP2;ratioP2
4464;SDS011;2245;48.136;13.428;2023-02-11T00:01:56;35.90;;;17.57;;
4464;SDS011;2245;48.136;13.428;2023-02-11T00:04:25;40.63;;;17.93;;
4464;SDS011;2245;48.136;13.428;2023-02-11T00:06:52;41.70;;;17.30;;
4464;SDS011;2245;48.136;13.428;2023-02-11T00:09:19;47.00;;;18.90;;
4464;SDS011;2245;48.136;13.428;2023-02-11T00:11:46;45.17;;;17.63;;
4464;SDS011;2245;48.136;13.428;2023-02-11T00:14:12;36.00;;;17.30;;
4464;SDS011;2245;48.136;13.428;2023-02-11T00:16:41;39.77;;;18.07;;
4464;SDS011;2245;48.136;13.428;2023-02-11T00:19:08;35.43;;;15.33;;
4464;SDS011;2245;48.136;13.428;2023-02-11T00:21:35;33.60;;;15.57;;
4464;SDS011;2245;48.136;13.428;2023-02-11T00:24:02;33.07;;;14.83;;
4464;SDS011;2245;48.136;13.428;2023-02-11T00:26:29;38.53;;;15.70;;
4464;SDS011;2245;48.136;13.428;2023-02-11T00:28:57;44.13;;;17.00;;
4464;SDS011;2245;48.136;13.428;2023-02-11T00:31:25;36.83;;;15.67;;
4464;SDS011;2245;48.136;13.428;2023-02-11T00:33:53;32.40;;;15.60;;
4464;SDS011;2245;48.136;13.428;2023-02-11T00:36:21;35.43;;;15.87;;
4464;SDS011;2245;48.136;13.428;2023-02-11T00:38:50;37.40;;;14.57;;
4464;SDS011;2245;48.136;13.428;2023-02-11T00:41:18;26.80;;;15.80;;
4464;SDS011;2245;48.136;13.428;2023-02-11T00:43:45;32.13;;;13.57;;
4464;SDS011;2245;48.136;13.428;2023-02-11T00:46:13;37.67;;;16.80;;
4464;SDS011;2245;48.136;13.428;2023-02-11T00:48:40;41.47;;;15.73;;
4464;SDS011;2245;48.136;13.428;2023-02-11T00:51:08;40.00;;;15.40;;
4464;SDS011;2245;48.136;13.428;2023-02-11T00:53:35;33.90;;;14.57;;
4464;SDS011;2245;48.136;13.428;2023-02-11T00:56:03;29.00;;;14.70;;
4464;SDS011;2245;48.136;13.428;2023-02-11T00:58:30;36.90;;;15.33;;
4464;SDS011;2245;48.136;13.428;2023-02-11T01:00:57;38.67;;;15.70;;
4464;SDS011;2245;48.136;13.428;2023-02-11T01:03:24;32.70;;;15.83;;
4464;SDS011;2245;48.136;13.428;2023-02-11T01:05:51;41.53;;;15.80;;
4464;SDS011;2245;48.136;13.428;2023-02-11T01:08:19;32.60;;;16.17;;
4464;SDS011;2245;48.136;13.428;2023-02-11T01:10:52;32.03;;;15.73;;
4464;SDS011;2245;48.136;13.428;2023-02-11T01:13:20;39.93;;;17.37;;
4464;SDS011;2245;48.136;13.428;2023-02-11T01:15:47;35.43;;;13.80;;
4464;SDS011;2245;48.136;13.428;2023-02-11T01:18:14;32.03;;;15.30;;
4464;SDS011;2245;48.136;13.428;2023-02-11T01:20:40;41.40;;;15.33;;
4464;SDS011;2245;48.136;13.428;2023-02-11T01:23:07;37.43;;;17.10;;
4464;SDS011;2245;48.136;13.428;2023-02-11T01:25:36;30.80;;;14.77;;
4464;SDS011;2245;48.136;13.428;2023-02-11T01:28:03;39.03;;;15.23;;
4464;SDS011;2245;48.136;13.428;2023-02-11T01:30:30;34.50;;;16.57;;
4464;SDS011;2245;48.136;13.428;2023-02-11T01:32:57;40.33;;;17.23;;
4464;SDS011;2245;48.136;13.428;2023-02-11T01:35:24;43.03;;;16.70;;
4464;SDS011;2245;48.136;13.428;2023-02-11T01:37:51;43.83;;;17.23;;
4464;SDS011;2245;48.136;13.428;2023-02-11T01:40:18;55.17;;;23.77;;
4464;SDS011;2245;48.136;13.428;2023-02-11T01:42:46;79.97;;;28.40;;
4464;SDS011;2245;48.136;13.428;2023-02-11T01:48:24;84.67;;;29.20;;
4464;SDS011;2245;48.136;13.428;2023-02-11T01:50:53;81.03;;;27.27;;
4464;SDS011;2245;48.136;13.428;2023-02-11T01:53:23;58.30;;;25.17;;
4464;SDS011;2245;48.136;13.428;2023-02-11T01:56:07;89.03;;;30.70;;
4464;SDS011;2245;48.136;13.428;2023-02-11T01:58:53;80.87;;;28.23;;
4464;SDS011;2245;48.136;13.428;2023-02-11T02:01:22;79.63;;;27.63;;
4464;SDS011;2245;48.136;13.428;2023-02-11T02:03:50;62.03;;;26.17;;
4464;SDS011;2245;48.136;13.428;2023-02-11T02:06:18;32.53;;;15.97;;
4464;SDS011;2245;48.136;13.428;2023-02-11T02:08:51;35.37;;;16.13;;
4464;SDS011;2245;48.136;13.428;2023-02-11T02:11:22;38.53;;;17.70;;
4464;SDS011;2245;48.136;13.428;2023-02-11T02:13:50;46.80;;;15.33;;
4464;SDS011;2245;48.136;13.428;2023-02-11T02:16:28;49.60;;;18.07;;
4464;SDS011;2245;48.136;13.428;2023-02-11T02:18:59;35.03;;;15.90;;
4464;SDS011;2245;48.136;13.428;2023-02-11T02:21:43;39.47;;;17.00;;
4464;SDS011;2245;48.136;13.428;2023-02-11T02:24:38;35.23;;;14.73;;
4464;SDS011;2245;48.136;13.428;2023-02-11T02:27:35;33.67;;;16.27;;
4464;SDS011;2245;48.136;13.428;2023-02-11T02:33:26;32.20;;;15.13;;
4464;SDS011;2245;48.136;13.428;2023-02-11T02:36:00;48.20;;;18.97;;
4464;SDS011;2245;48.136;13.428;2023-02-11T02:38:32;36.03;;;15.70;;
4464;SDS011;2245;48.136;13.428;2023-02-11T02:41:02;41.80;;;16.90;;
4464;SDS011;2245;48.136;13.428;2023-02-11T02:43:31;35.03;;;15.80;;
4464;SDS011;2245;48.136;13.428;2023-02-11T02:46:08;38.10;;;13.33;;
4464;SDS011;2245;48.136;13.428;2023-02-11T02:48:38;31.77;;;13.03;;
4464;SDS011;2245;48.136;13.428;2023-02-11T02:51:07;34.23;;;15.37;;
4464;SDS011;2245;48.136;13.428;2023-02-11T02:53:43;29.60;;;13.47;;
4464;SDS011;2245;48.136;13.428;2023-02-11T02:56:17;36.93;;;14.40;;
4464;SDS011;2245;48.136;13.428;2023-02-11T02:58:59;54.17;;;13.70;;
4464;SDS011;2245;48.136;13.428;2023-02-11T03:01:34;24.27;;;14.00;;
4464;SDS011;2245;48.136;13.428;2023-02-11T03:04:09;27.83;;;13.63;;
4464;SDS011;2245;48.136;13.428;2023-02-11T03:06:42;33.30;;;13.20;;
4464;SDS011;2245;48.136;13.428;2023-02-11T03:09:13;23.30;;;12.50;;
4464;SDS011;2245;48.136;13.428;2023-02-11T03:11:43;31.03;;;13.90;;
4464;SDS011;2245;48.136;13.428;2023-02-11T03:14:11;27.67;;;12.43;;
4464;SDS011;2245;48.136;13.428;2023-02-11T03:16:41;33.27;;;12.20;;
4464;SDS011;2245;48.136;13.428;2023-02-11T03:19:11;29.03;;;13.50;;
4464;SDS011;2245;48.136;13.428;2023-02-11T03:21:39;36.33;;;12.53;;
4464;SDS011;2245;48.136;13.428;2023-02-11T03:24:08;27.93;;;11.43;;
4464;SDS011;2245;48.136;13.428;2023-02-11T03:26:39;32.13;;;12.43;;
4464;SDS011;2245;48.136;13.428;2023-02-11T03:29:09;27.43;;;10.57;;
4464;SDS011;2245;48.136;13.428;2023-02-11T03:31:42;28.30;;;10.90;;
4464;SDS011;2245;48.136;13.428;2023-02-11T03:34:17;24.73;;;10.63;;
4464;SDS011;2245;48.136;13.428;2023-02-11T03:36:45;24.23;;;11.20;;
4464;SDS011;2245;48.136;13.428;2023-02-11T03:39:16;25.87;;;11.20;;
4464;SDS011;2245;48.136;13.428;2023-02-11T03:41:46;18.47;;;11.17;;
4464;SDS011;2245;48.136;13.428;2023-02-11T03:44:14;33.17;;;12.97;;
4464;SDS011;2245;48.136;13.428;2023-02-11T03:46:42;28.80;;;12.60;;
4464;SDS011;2245;48.136;13.428;2023-02-11T03:49:12;25.20;;;10.57;;
4464;SDS011;2245;48.136;13.428;2023-02-11T03:51:42;22.10;;;11.33;;
4464;SDS011;2245;48.136;13.428;2023-02-11T03:54:10;23.80;;;10.27;;
4464;SDS011;2245;48.136;13.428;2023-02-11T03:56:42;18.60;;;9.47;;
4464;SDS011;2245;48.136;13.428;2023-02-11T03:59:14;23.03;;;9.80;;
4464;SDS011;2245;48.136;13.428;2023-02-11T04:01:41;28.37;;;11.97;;
4464;SDS011;2245;48.136;13.428;2023-02-11T04:04:08;23.63;;;11.07;;
4464;SDS011;2245;48.136;13.428;2023-02-11T04:06:36;20.93;;;9.03;;
4464;SDS011;2245;48.136;13.428;2023-02-11T04:09:03;27.33;;;11.80;;
4464;SDS011;2245;48.136;13.428;2023-02-11T04:11:30;22.93;;;10.73;;
4464;SDS011;2245;48.136;13.428;2023-02-11T04:13:57;17.97;;;10.60;;
4464;SDS011;2245;48.136;13.428;2023-02-11T04:16:24;18.23;;;9.83;;
4464;SDS011;2245;48.136;13.428;2023-02-11T04:18:50;26.27;;;11.20;;
4464;SDS011;2245;48.136;13.428;2023-02-11T04:21:17;31.13;;;11.50;;
4464;SDS011;2245;48.136;13.428;2023-02-11T04:23:46;24.33;;;11.00;;
4464;SDS011;2245;48.136;13.428;2023-02-11T04:26:12;23.40;;;11.40;;
4464;SDS011;2245;48.136;13.428;2023-02-11T04:28:39;17.23;;;8.93;;
4464;SDS011;2245;48.136;13.428;2023-02-11T04:31:06;22.90;;;9.87;;
4464;SDS011;2245;48.136;13.428;2023-02-11T04:33:34;19.03;;;8.10;;
4464;SDS011;2245;48.136;13.428;2023-02-11T04:36:01;21.67;;;9.63;;
4464;SDS011;2245;48.136;13.428;2023-02-11T04:38:28;17.80;;;8.63;;
4464;SDS011;2245;48.136;13.428;2023-02-11T04:40:57;16.60;;;7.97;;
4464;SDS011;2245;48.136;13.428;2023-02-11T04:43:25;16.40;;;9.00;;
4464;SDS011;2245;48.136;13.428;2023-02-11T04:45:55;20.60;;;8.53;;
4464;SDS011;2245;48.136;13.428;2023-02-11T04:48:22;20.93;;;9.27;;
4464;SDS011;2245;48.136;13.428;2023-02-11T04:50:49;11.97;;;7.80;;
4464;SDS011;2245;48.136;13.428;2023-02-11T04:53:16;20.70;;;9.30;;
4464;SDS011;2245;48.136;13.428;2023-02-11T04:55:42;21.30;;;11.40;;
4464;SDS011;2245;48.136;13.428;2023-02-11T04:58:11;21.37;;;10.30;;
4464;SDS011;2245;48.136;13.428;2023-02-11T05:00:38;21.73;;;10.90;;
4464;SDS011;2245;48.136;13.428;2023-02-11T05:03:04;23.73;;;14.23;;
4464;SDS011;2245;48.136;13.428;2023-02-11T05:05:31;26.10;;;13.40;;
4464;SDS011;2245;48.136;13.428;2023-02-11T05:07:58;23.57;;;10.07;;
4464;SDS011;2245;48.136;13.428;2023-02-11T05:10:25;18.40;;;10.33;;
4464;SDS011;2245;48.136;13.428;2023-02-11T05:12:52;21.90;;;9.00;;
4464;SDS011;2245;48.136;13.428;2023-02-11T05:15:21;22.23;;;10.00;;
4464;SDS011;2245;48.136;13.428;2023-02-11T05:17:47;18.90;;;8.40;;
4464;SDS011;2245;48.136;13.428;2023-02-11T05:20:14;14.67;;;8.00;;
4464;SDS011;2245;48.136;13.428;2023-02-11T05:22:41;19.70;;;8.90;;
4464;SDS011;2245;48.136;13.428;2023-02-11T05:25:08;17.73;;;8.37;;
4464;SDS011;2245;48.136;13.428;2023-02-11T05:27:35;20.17;;;9.67;;
4464;SDS011;2245;48.136;13.428;2023-02-11T05:30:02;25.83;;;9.03;;
4464;SDS011;2245;48.136;13.428;2023-02-11T05:32:31;20.50;;;8.63;;
4464;SDS011;2245;48.136;13.428;2023-02-11T05:34:58;17.60;;;9.83;;
4464;SDS011;2245;48.136;13.428;2023-02-11T05:37:25;22.37;;;9.47;;
4464;SDS011;2245;48.136;13.428;2023-02-11T05:39:52;12.90;;;8.37;;
4464;SDS011;2245;48.136;13.428;2023-02-11T05:42:19;17.63;;;7.93;;
4464;SDS011;2245;48.136;13.428;2023-02-11T05:44:46;17.33;;;8.90;;
4464;SDS011;2245;48.136;13.428;2023-02-11T05:47:12;20.27;;;9.90;;
4464;SDS011;2245;48.136;13.428;2023-02-11T05:49:41;16.40;;;7.93;;
4464;SDS011;2245;48.136;13.428;2023-02-11T05:52:08;13.17;;;6.87;;
4464;SDS011;2245;48.136;13.428;2023-02-11T05:54:34;12.30;;;6.20;;
4464;SDS011;2245;48.136;13.428;2023-02-11T05:57:01;13.17;;;6.80;;
4464;SDS011;2245;48.136;13.428;2023-02-11T05:59:28;16.00;;;8.87;;
4464;SDS011;2245;48.136;13.428;2023-02-11T06:01:55;21.13;;;8.93;;
4464;SDS011;2245;48.136;13.428;2023-02-11T06:04:22;22.50;;;9.77;;
4464;SDS011;2245;48.136;13.428;2023-02-11T06:06:50;15.90;;;8.13;;
4464;SDS011;2245;48.136;13.428;2023-02-11T06:09:17;17.80;;;8.70;;
4464;SDS011;2245;48.136;13.428;2023-02-11T06:11:44;18.00;;;8.27;;
4464;SDS011;2245;48.136;13.428;2023-02-11T06:14:11;22.27;;;8.50;;
4464;SDS011;2245;48.136;13.428;2023-02-11T06:16:38;15.63;;;8.17;;
4464;SDS011;2245;48.136;13.428;2023-02-11T06:19:05;14.70;;;7.07;;
4464;SDS011;2245;48.136;13.428;2023-02-11T06:21:32;17.50;;;9.17;;
4464;SDS011;2245;48.136;13.428;2023-02-11T06:24:00;18.80;;;8.70;;
4464;SDS011;2245;48.136;13.428;2023-02-11T06:26:27;31.53;;;9.60;;
4464;SDS011;2245;48.136;13.428;2023-02-11T06:28:54;18.67;;;8.30;;
4464;SDS011;2245;48.136;13.428;2023-02-11T06:31:21;21.90;;;8.87;;
4464;SDS011;2245;48.136;13.428;2023-02-11T06:33:47;18.73;;;8.47;;
4464;SDS011;2245;48.136;13.428;2023-02-11T06:36:15;19.50;;;8.80;;
4464;SDS011;2245;48.136;13.428;2023-02-11T06:38:44;18.27;;;8.20;;
4464;SDS011;2245;48.136;13.428;2023-02-11T06:41:13;14.57;;;9.33;;
4464;SDS011;2245;48.136;13.428;2023-02-11T06:43:44;16.40;;;8.03;;
4464;SDS011;2245;48.136;13.428;2023-02-11T06:46:11;16.53;;;7.90;;
4464;SDS011;2245;48.136;13.428;2023-02-11T06:48:38;17.50;;;7.43;;
4464;SDS011;2245;48.136;13.428;2023-02-11T06:51:06;21.23;;;9.27;;
4464;SDS011;2245;48.136;13.428;2023-02-11T06:53:35;13.63;;;7.87;;
4464;SDS011;2245;48.136;13.428;2023-02-11T06:56:03;18.40;;;8.13;;
4464;SDS011;2245;48.136;13.428;2023-02-11T06:58:32;23.10;;;9.70;;
4464;SDS011;2245;48.136;13.428;2023-02-11T07:01:02;29.43;;;10.57;;
4464;SDS011;2245;48.136;13.428;2023-02-11T07:03:31;24.33;;;11.10;;
4464;SDS011;2245;48.136;13.428;2023-02-11T07:05:58;35.43;;;13.47;;
4464;SDS011;2245;48.136;13.428;2023-02-11T07:08:25;27.80;;;13.77;;
4464;SDS011;2245;48.136;13.428;2023-02-11T07:10:52;58.30;;;23.80;;
4464;SDS011;2245;48.136;13.428;2023-02-11T07:13:19;31.00;;;15.07;;
4464;SDS011;2245;48.136;13.428;2023-02-11T07:15:47;18.70;;;9.97;;
4464;SDS011;2245;48.136;13.428;2023-02-11T07:18:14;23.20;;;11.00;;
4464;SDS011;2245;48.136;13.428;2023-02-11T07:20:41;22.80;;;12.37;;
4464;SDS011;2245;48.136;13.428;2023-02-11T07:23:08;26.60;;;11.37;;
4464;SDS011;2245;48.136;13.428;2023-02-11T07:25:35;25.90;;;13.07;;
4464;SDS011;2245;48.136;13.428;2023-02-11T07:28:02;27.70;;;9.67;;
4464;SDS011;2245;48.136;13.428;2023-02-11T07:30:29;18.67;;;9.63;;
4464;SDS011;2245;48.136;13.428;2023-02-11T07:32:57;30.87;;;11.97;;
4464;SDS011;2245;48.136;13.428;2023-02-11T07:35:24;40.53;;;19.93;;
4464;SDS011;2245;48.136;13.428;2023-02-11T07:37:51;26.33;;;12.87;;
4464;SDS011;2245;48.136;13.428;2023-02-11T07:40:18;40.73;;;15.60;;
4464;SDS011;2245;48.136;13.428;2023-02-11T07:42:45;70.53;;;29.40;;
4464;SDS011;2245;48.136;13.428;2023-02-11T07:45:12;19.43;;;11.37;;
4464;SDS011;2245;48.136;13.428;2023-02-11T07:47:39;22.33;;;11.30;;
4464;SDS011;2245;48.136;13.428;2023-02-11T07:50:08;24.87;;;10.77;;
4464;SDS011;2245;48.136;13.428;2023-02-11T07:52:35;21.73;;;11.20;;
4464;SDS011;2245;48.136;13.428;2023-02-11T07:55:02;21.33;;;10.10;;
4464;SDS011;2245;48.136;13.428;2023-02-11T07:57:29;27.13;;;13.33;;
4464;SDS011;2245;48.136;13.428;2023-02-11T07:59:56;23.03;;;11.63;;
4464;SDS011;2245;48.136;13.428;2023-02-11T08:02:23;24.13;;;11.67;;
4464;SDS011;2245;48.136;13.428;2023-02-11T08:04:50;19.83;;;11.27;;
4464;SDS011;2245;48.136;13.428;2023-02-11T08:07:18;24.03;;;11.00;;
4464;SDS011;2245;48.136;13.428;2023-02-11T08:09:45;21.60;;;10.93;;
4464;SDS011;2245;48.136;13.428;2023-02-11T08:12:12;27.10;;;11.00;;
4464;SDS011;2245;48.136;13.428;2023-02-11T08:14:38;25.10;;;10.50;;
4464;SDS011;2245;48.136;13.428;2023-02-11T08:17:05;22.00;;;10.47;;
4464;SDS011;2245;48.136;13.428;2023-02-11T08:19:32;26.10;;;10.20;;
4464;SDS011;2245;48.136;13.428;2023-02-11T08:21:59;13.13;;;8.33;;
4464;SDS011;2245;48.136;13.428;2023-02-11T08:24:27;16.73;;;7.63;;
4464;SDS011;2245;48.136;13.428;2023-02-11T08:26:54;18.47;;;8.80;;
4464;SDS011;2245;48.136;13.428;2023-02-11T08:29:21;25.70;;;11.07;;
4464;SDS011;2245;48.136;13.428;2023-02-11T08:31:48;22.53;;;9.87;;
4464;SDS011;2245;48.136;13.428;2023-02-11T08:34:15;18.33;;;8.50;;
4464;SDS011;2245;48.136;13.428;2023-02-11T08:36:44;18.33;;;7.57;;
4464;SDS011;2245;48.136;13.428;2023-02-11T08:39:13;14.80;;;6.07;;
4464;SDS011;2245;48.136;13.428;2023-02-11T08:41:43;15.53;;;6.70;;
4464;SDS011;2245;48.136;13.428;2023-02-11T08:44:10;13.13;;;7.20;;
4464;SDS011;2245;48.136;13.428;2023-02-11T08:46:37;15.63;;;8.27;;
4464;SDS011;2245;48.136;13.428;2023-02-11T08:49:04;15.03;;;8.20;;
4464;SDS011;2245;48.136;13.428;2023-02-11T08:51:32;19.43;;;8.17;;
4464;SDS011;2245;48.136;13.428;2023-02-11T08:53:59;14.30;;;7.87;;
4464;SDS011;2245;48.136;13.428;2023-02-11T08:56:26;16.53;;;8.10;;
4464;SDS011;2245;48.136;13.428;2023-02-11T08:58:56;18.30;;;6.90;;
4464;SDS011;2245;48.136;13.428;2023-02-11T09:01:24;12.47;;;6.80;;
4464;SDS011;2245;48.136;13.428;2023-02-11T09:03:52;15.73;;;7.77;;
4464;SDS011;2245;48.136;13.428;2023-02-11T09:06:20;19.40;;;8.47;;
4464;SDS011;2245;48.136;13.428;2023-02-11T09:08:48;20.43;;;7.80;;
4464;SDS011;2245;48.136;13.428;2023-02-11T09:11:16;24.40;;;7.70;;
4464;SDS011;2245;48.136;13.428;2023-02-11T09:13:43;16.97;;;8.80;;
4464;SDS011;2245;48.136;13.428;2023-02-11T09:16:16;22.97;;;11.40;;
4464;SDS011;2245;48.136;13.428;2023-02-11T09:18:44;16.87;;;10.03;;
4464;SDS011;2245;48.136;13.428;2023-02-11T09:21:11;24.33;;;10.20;;
4464;SDS011;2245;48.136;13.428;2023-02-11T09:23:40;25.50;;;11.27;;
4464;SDS011;2245;48.136;13.428;2023-02-11T09:26:09;22.77;;;11.77;;
4464;SDS011;2245;48.136;13.428;2023-02-11T09:28:38;26.67;;;11.83;;
4464;SDS011;2245;48.136;13.428;2023-02-11T09:31:05;23.87;;;11.23;;
4464;SDS011;2245;48.136;13.428;2023-02-11T09:33:34;22.20;;;12.37;;
4464;SDS011;2245;48.136;13.428;2023-02-11T09:36:01;22.27;;;11.47;;
4464;SDS011;2245;48.136;13.428;2023-02-11T09:38:28;26.67;;;10.27;;
4464;SDS011;2245;48.136;13.428;2023-02-11T09:40:55;24.73;;;12.23;;
4464;SDS011;2245;48.136;13.428;2023-02-11T09:43:23;34.70;;;12.50;;
4464;SDS011;2245;48.136;13.428;2023-02-11T09:45:52;27.83;;;12.30;;
4464;SDS011;2245;48.136;13.428;2023-02-11T09:48:21;32.57;;;11.57;;
4464;SDS011;2245;48.136;13.428;2023-02-11T09:50:50;22.10;;;10.73;;
4464;SDS011;2245;48.136;13.428;2023-02-11T09:53:21;21.40;;;9.73;;
4464;SDS011;2245;48.136;13.428;2023-02-11T09:55:50;24.17;;;10.20;;
4464;SDS011;2245;48.136;13.428;2023-02-11T09:58:21;33.30;;;11.80;;
4464;SDS011;2245;48.136;13.428;2023-02-11T10:00:52;31.97;;;11.50;;
4464;SDS011;2245;48.136;13.428;2023-02-11T10:03:33;26.70;;;12.10;;
4464;SDS011;2245;48.136;13.428;2023-02-11T10:06:08;34.77;;;11.50;;
4464;SDS011;2245;48.136;13.428;2023-02-11T10:08:53;28.87;;;9.63;;
4464;SDS011;2245;48.136;13.428;2023-02-11T10:11:25;30.40;;;12.10;;
4464;SDS011;2245;48.136;13.428;2023-02-11T10:13:59;22.13;;;9.10;;
4464;SDS011;2245;48.136;13.428;2023-02-11T10:16:34;38.93;;;14.00;;
4464;SDS011;2245;48.136;13.428;2023-02-11T10:19:09;25.80;;;12.40;;
4464;SDS011;2245;48.136;13.428;2023-02-11T10:21:46;25.07;;;11.57;;
4464;SDS011;2245;48.136;13.428;2023-02-11T10:24:19;30.07;;;10.67;;
4464;SDS011;2245;48.136;13.428;2023-02-11T10:26:46;20.50;;;9.70;;
4464;SDS011;2245;48.136;13.428;2023-02-11T10:29:17;25.60;;;10.47;;
4464;SDS011;2245;48.136;13.428;2023-02-11T10:31:50;24.83;;;10.60;;
4464;SDS011;2245;48.136;13.428;2023-02-11T10:34:17;26.13;;;12.30;;
4464;SDS011;2245;48.136;13.428;2023-02-11T10:36:45;25.60;;;10.20;;
4464;SDS011;2245;48.136;13.428;2023-02-11T10:39:13;24.40;;;10.37;;
4464;SDS011;2245;48.136;13.428;2023-02-11T10:41:41;21.47;;;9.67;;
4464;SDS011;2245;48.136;13.428;2023-02-11T10:44:15;27.77;;;11.10;;
4464;SDS011;2245;48.136;13.428;2023-02-11T10:46:47;22.33;;;10.43;;
4464;SDS011;2245;48.136;13.428;2023-02-11T10:49:31;19.30;;;9.20;;
4464;SDS011;2245;48.136;13.428;2023-02-11T10:52:13;24.97;;;9.63;;
4464;SDS011;2245;48.136;13.428;2023-02-11T10:55:00;24.67;;;10.13;;
4464;SDS011;2245;48.136;13.428;2023-02-11T10:57:30;33.03;;;10.23;;
4464;SDS011;2245;48.136;13.428;2023-02-11T11:00:00;29.63;;;10.63;;
4464;SDS011;2245;48.136;13.428;2023-02-11T11:02:32;25.33;;;9.77;;
4464;SDS011;2245;48.136;13.428;2023-02-11T11:05:00;26.27;;;10.30;;
4464;SDS011;2245;48.136;13.428;2023-02-11T11:07:31;25.77;;;10.47;;
4464;SDS011;2245;48.136;13.428;2023-02-11T11:09:59;26.03;;;10.40;;
4464;SDS011;2245;48.136;13.428;2023-02-11T11:12:32;20.73;;;8.90;;
4464;SDS011;2245;48.136;13.428;2023-02-11T11:15:12;24.37;;;11.07;;
4464;SDS011;2245;48.136;13.428;2023-02-11T11:17:42;17.30;;;10.10;;
4464;SDS011;2245;48.136;13.428;2023-02-11T11:23:07;31.83;;;11.70;;
4464;SDS011;2245;48.136;13.428;2023-02-11T11:25:37;34.30;;;11.70;;
4464;SDS011;2245;48.136;13.428;2023-02-11T11:28:15;23.23;;;10.10;;
4464;SDS011;2245;48.136;13.428;2023-02-11T11:30:46;26.97;;;10.20;;
4464;SDS011;2245;48.136;13.428;2023-02-11T11:33:16;24.90;;;10.70;;
4464;SDS011;2245;48.136;13.428;2023-02-11T11:35:52;25.37;;;11.10;;
4464;SDS011;2245;48.136;13.428;2023-02-11T11:38:26;27.20;;;12.37;;
4464;SDS011;2245;48.136;13.428;2023-02-11T11:41:12;25.90;;;12.30;;
4464;SDS011;2245;48.136;13.428;2023-02-11T11:43:42;24.73;;;10.70;;
4464;SDS011;2245;48.136;13.428;2023-02-11T11:46:23;47.40;;;14.90;;
4464;SDS011;2245;48.136;13.428;2023-02-11T11:48:53;24.80;;;10.93;;
4464;SDS011;2245;48.136;13.428;2023-02-11T11:51:22;28.63;;;11.50;;
4464;SDS011;2245;48.136;13.428;2023-02-11T11:53:52;24.03;;;12.17;;
4464;SDS011;2245;48.136;13.428;2023-02-11T11:56:24;31.00;;;12.43;;
4464;SDS011;2245;48.136;13.428;2023-02-11T11:58:52;25.90;;;13.10;;
4464;SDS011;2245;48.136;13.428;2023-02-11T12:01:22;23.23;;;12.67;;
4464;SDS011;2245;48.136;13.428;2023-02-11T12:04:04;29.90;;;12.60;;
4464;SDS011;2245;48.136;13.428;2023-02-11T12:06:40;31.97;;;14.20;;
4464;SDS011;2245;48.136;13.428;2023-02-11T12:09:15;32.77;;;11.77;;
4464;SDS011;2245;48.136;13.428;2023-02-11T12:11:56;29.10;;;12.57;;
4464;SDS011;2245;48.136;13.428;2023-02-11T12:14:38;22.30;;;9.80;;
4464;SDS011;2245;48.136;13.428;2023-02-11T12:17:12;27.77;;;11.30;;
4464;SDS011;2245;48.136;13.428;2023-02-11T12:19:48;40.70;;;13.03;;
4464;SDS011;2245;48.136;13.428;2023-02-11T12:22:24;27.53;;;12.90;;
4464;SDS011;2245;48.136;13.428;2023-02-11T12:25:18;22.10;;;11.60;;
4464;SDS011;2245;48.136;13.428;2023-02-11T12:27:53;23.47;;;11.67;;
4464;SDS011;2245;48.136;13.428;2023-02-11T12:30:33;36.53;;;12.80;;
4464;SDS011;2245;48.136;13.428;2023-02-11T12:33:15;20.97;;;10.13;;
4464;SDS011;2245;48.136;13.428;2023-02-11T12:35:51;19.33;;;9.67;;
4464;SDS011;2245;48.136;13.428;2023-02-11T12:38:27;21.30;;;10.03;;
4464;SDS011;2245;48.136;13.428;2023-02-11T12:41:03;19.60;;;8.73;;
4464;SDS011;2245;48.136;13.428;2023-02-11T12:43:39;23.00;;;9.70;;
4464;SDS011;2245;48.136;13.428;2023-02-11T12:46:13;31.57;;;10.50;;
4464;SDS011;2245;48.136;13.428;2023-02-11T12:49:04;24.13;;;9.20;;
4464;SDS011;2245;48.136;13.428;2023-02-11T12:51:40;20.90;;;9.20;;
4464;SDS011;2245;48.136;13.428;2023-02-11T12:54:26;26.90;;;10.37;;
4464;SDS011;2245;48.136;13.428;2023-02-11T12:56:58;24.23;;;8.77;;
4464;SDS011;2245;48.136;13.428;2023-02-11T12:59:37;21.97;;;9.47;;
4464;SDS011;2245;48.136;13.428;2023-02-11T13:02:16;22.63;;;9.03;;
4464;SDS011;2245;48.136;13.428;2023-02-11T13:04:45;15.00;;;8.57;;
4464;SDS011;2245;48.136;13.428;2023-02-11T13:07:18;19.93;;;9.43;;
4464;SDS011;2245;48.136;13.428;2023-02-11T13:09:50;20.60;;;10.07;;
4464;SDS011;2245;48.136;13.428;2023-02-11T13:12:21;18.33;;;8.03;;
4464;SDS011;2245;48.136;13.428;2023-02-11T13:15:06;63.80;;;14.20;;
4464;SDS011;2245;48.136;13.428;2023-02-11T13:17:39;19.90;;;8.87;;
4464;SDS011;2245;48.136;13.428;2023-02-11T13:20:14;17.60;;;8.67;;
4464;SDS011;2245;48.136;13.428;2023-02-11T13:22:49;21.27;;;9.57;;
4464;SDS011;2245;48.136;13.428;2023-02-11T13:25:24;17.37;;;7.53;;
4464;SDS011;2245;48.136;13.428;2023-02-11T13:27:58;20.40;;;8.90;;
4464;SDS011;2245;48.136;13.428;2023-02-11T13:30:29;26.87;;;9.23;;
4464;SDS011;2245;48.136;13.428;2023-02-11T13:33:02;22.30;;;9.63;;
4464;SDS011;2245;48.136;13.428;2023-02-11T13:38:53;24.77;;;11.13;;
4464;SDS011;2245;48.136;13.428;2023-02-11T13:41:24;29.90;;;13.80;;
4464;SDS011;2245;48.136;13.428;2023-02-11T13:43:59;24.27;;;13.00;;
4464;SDS011;2245;48.136;13.428;2023-02-11T13:46:28;31.20;;;12.80;;
4464;SDS011;2245;48.136;13.428;2023-02-11T13:48:56;26.00;;;11.50;;
4464;SDS011;2245;48.136;13.428;2023-02-11T13:51:33;28.33;;;12.57;;
4464;SDS011;2245;48.136;13.428;2023-02-11T13:54:01;24.23;;;12.43;;
4464;SDS011;2245;48.136;13.428;2023-02-11T13:56:30;26.60;;;12.43;;
4464;SDS011;2245;48.136;13.428;2023-02-11T13:59:00;23.43;;;11.87;;
4464;SDS011;2245;48.136;13.428;2023-02-11T14:01:39;26.23;;;11.73;;
4464;SDS011;2245;48.136;13.428;2023-02-11T14:04:21;41.37;;;15.70;;
4464;SDS011;2245;48.136;13.428;2023-02-11T14:07:25;30.60;;;13.60;;
4464;SDS011;2245;48.136;13.428;2023-02-11T14:13:21;26.47;;;14.00;;
4464;SDS011;2245;48.136;13.428;2023-02-11T14:15:56;26.33;;;13.10;;
4464;SDS011;2245;48.136;13.428;2023-02-11T14:21:29;28.63;;;14.03;;
4464;SDS011;2245;48.136;13.428;2023-02-11T14:26:59;26.80;;;14.90;;
4464;SDS011;2245;48.136;13.428;2023-02-11T14:29:28;27.33;;;14.00;;
4464;SDS011;2245;48.136;13.428;2023-02-11T14:32:00;42.20;;;15.90;;
4464;SDS011;2245;48.136;13.428;2023-02-11T14:34:36;31.37;;;11.83;;
4464;SDS011;2245;48.136;13.428;2023-02-11T14:37:19;28.00;;;13.20;;
4464;SDS011;2245;48.136;13.428;2023-02-11T14:39:57;29.93;;;14.53;;
4464;SDS011;2245;48.136;13.428;2023-02-11T14:42:33;27.20;;;13.37;;
4464;SDS011;2245;48.136;13.428;2023-02-11T14:45:02;29.00;;;13.40;;
4464;SDS011;2245;48.136;13.428;2023-02-11T14:47:33;30.07;;;13.43;;
4464;SDS011;2245;48.136;13.428;2023-02-11T14:50:04;34.87;;;13.80;;
4464;SDS011;2245;48.136;13.428;2023-02-11T14:52:33;22.87;;;12.40;;
4464;SDS011;2245;48.136;13.428;2023-02-11T14:55:05;32.53;;;14.33;;
4464;SDS011;2245;48.136;13.428;2023-02-11T14:57:41;28.20;;;13.10;;
4464;SDS011;2245;48.136;13.428;2023-02-11T15:00:13;46.70;;;15.10;;
4464;SDS011;2245;48.136;13.428;2023-02-11T15:02:44;29.00;;;15.67;;
4464;SDS011;2245;48.136;13.428;2023-02-11T15:05:18;35.27;;;15.77;;
4464;SDS011;2245;48.136;13.428;2023-02-11T15:07:48;32.63;;;15.43;;
4464;SDS011;2245;48.136;13.428;2023-02-11T15:10:18;29.57;;;14.47;;
4464;SDS011;2245;48.136;13.428;2023-02-11T15:12:49;28.70;;;14.87;;
4464;SDS011;2245;48.136;13.428;2023-02-11T15:15:16;34.47;;;16.40;;
4464;SDS011;2245;48.136;13.428;2023-02-11T15:17:44;36.63;;;14.87;;
4464;SDS011;2245;48.136;13.428;2023-02-11T15:20:17;38.43;;;15.53;;